sensor_id;sensor_type;location;lat;lon;timestamp;P1;durP1;ratioP1;P2;durP2;ratioP2
12218;SDS011;6172;42.646;23.344;2022-07-21T00:00:24;2.80;;;1.80;;
12218;SDS011;6172;42.646;23.344;2022-07-21T00:02:53;3.60;;;2.03;;
12218;SDS011;6172;42.646;23.344;2022-07-21T00:05:21;4.85;;;2.25;;
12218;SDS011;6172;42.646;23.344;2022-07-21T00:07:48;5.70;;;1.98;;
12218;SDS011;6172;42.646;23.344;2022-07-21T00:10:18;2.00;;;1.50;;
12218;SDS011;6172;42.646;23.344;2022-07-21T00:12:46;1.67;;;1.30;;
12218;SDS011;6172;42.646;23.344;2022-07-21T00:15:13;3.95;;;1.67;;
12218;SDS011;6172;42.646;23.344;2022-07-21T00:17:42;2.83;;;1.70;;
12218;SDS011;6172;42.646;23.344;2022-07-21T00:20:10;3.60;;;1.60;;
12218;SDS011;6172;42.646;23.344;2022-07-21T00:22:39;4.65;;;2.13;;
12218;SDS011;6172;42.646;23.344;2022-07-21T00:25:07;5.45;;;2.05;;
12218;SDS011;6172;42.646;23.344;2022-07-21T00:27:37;3.03;;;2.00;;
12218;SDS011;6172;42.646;23.344;2022-07-21T00:30:05;4.20;;;1.85;;
12218;SDS011;6172;42.646;23.344;2022-07-21T00:32:34;2.95;;;2.20;;
12218;SDS011;6172;42.646;23.344;2022-07-21T00:35:02;3.35;;;2.40;;
12218;SDS011;6172;42.646;23.344;2022-07-21T00:37:30;5.13;;;3.00;;
12218;SDS011;6172;42.646;23.344;2022-07-21T00:39:57;4.32;;;2.95;;
12218;SDS011;6172;42.646;23.344;2022-07-21T00:42:24;4.00;;;2.58;;
12218;SDS011;6172;42.646;23.344;2022-07-21T00:44:54;3.08;;;2.58;;
12218;SDS011;6172;42.646;23.344;2022-07-21T00:47:22;4.65;;;2.20;;
12218;SDS011;6172;42.646;23.344;2022-07-21T00:49:50;3.17;;;2.47;;
12218;SDS011;6172;42.646;23.344;2022-07-21T00:52:17;4.25;;;2.67;;
12218;SDS011;6172;42.646;23.344;2022-07-21T00:54:44;3.50;;;2.38;;
12218;SDS011;6172;42.646;23.344;2022-07-21T00:57:12;3.92;;;2.58;;
12218;SDS011;6172;42.646;23.344;2022-07-21T00:59:40;2.78;;;2.42;;
12218;SDS011;6172;42.646;23.344;2022-07-21T01:02:09;4.57;;;2.35;;
12218;SDS011;6172;42.646;23.344;2022-07-21T01:04:36;3.85;;;2.15;;
12218;SDS011;6172;42.646;23.344;2022-07-21T01:07:04;2.58;;;2.10;;
12218;SDS011;6172;42.646;23.344;2022-07-21T01:09:32;5.72;;;2.05;;
12218;SDS011;6172;42.646;23.344;2022-07-21T01:11:59;3.72;;;2.30;;
12218;SDS011;6172;42.646;23.344;2022-07-21T01:14:27;2.95;;;2.20;;
12218;SDS011;6172;42.646;23.344;2022-07-21T01:16:54;6.05;;;2.55;;
12218;SDS011;6172;42.646;23.344;2022-07-21T01:19:23;3.85;;;2.15;;
12218;SDS011;6172;42.646;23.344;2022-07-21T01:21:51;3.88;;;2.20;;
12218;SDS011;6172;42.646;23.344;2022-07-21T01:24:18;2.13;;;1.92;;
12218;SDS011;6172;42.646;23.344;2022-07-21T01:26:47;2.83;;;2.05;;
12218;SDS011;6172;42.646;23.344;2022-07-21T01:29:16;7.70;;;2.25;;
12218;SDS011;6172;42.646;23.344;2022-07-21T01:31:44;3.42;;;2.58;;
12218;SDS011;6172;42.646;23.344;2022-07-21T01:34:12;3.47;;;2.20;;
12218;SDS011;6172;42.646;23.344;2022-07-21T01:36:39;4.82;;;2.03;;
12218;SDS011;6172;42.646;23.344;2022-07-21T01:39:08;2.65;;;2.00;;
12218;SDS011;6172;42.646;23.344;2022-07-21T01:41:52;4.20;;;2.10;;
12218;SDS011;6172;42.646;23.344;2022-07-21T01:44:19;3.25;;;2.13;;
12218;SDS011;6172;42.646;23.344;2022-07-21T01:46:48;4.35;;;2.05;;
12218;SDS011;6172;42.646;23.344;2022-07-21T01:49:17;3.42;;;2.20;;
12218;SDS011;6172;42.646;23.344;2022-07-21T01:51:46;2.90;;;2.05;;
12218;SDS011;6172;42.646;23.344;2022-07-21T01:54:15;4.75;;;2.42;;
12218;SDS011;6172;42.646;23.344;2022-07-21T01:56:43;3.47;;;2.22;;
12218;SDS011;6172;42.646;23.344;2022-07-21T01:59:10;2.42;;;1.98;;
12218;SDS011;6172;42.646;23.344;2022-07-21T02:01:37;2.75;;;1.95;;
12218;SDS011;6172;42.646;23.344;2022-07-21T02:04:04;3.65;;;2.03;;
12218;SDS011;6172;42.646;23.344;2022-07-21T02:06:32;2.75;;;2.15;;
12218;SDS011;6172;42.646;23.344;2022-07-21T02:08:59;2.70;;;2.20;;
12218;SDS011;6172;42.646;23.344;2022-07-21T02:11:27;3.95;;;2.03;;
12218;SDS011;6172;42.646;23.344;2022-07-21T02:13:54;4.00;;;2.20;;
12218;SDS011;6172;42.646;23.344;2022-07-21T02:16:22;5.93;;;2.25;;
12218;SDS011;6172;42.646;23.344;2022-07-21T02:18:48;2.75;;;1.90;;
12218;SDS011;6172;42.646;23.344;2022-07-21T02:21:16;3.78;;;1.80;;
12218;SDS011;6172;42.646;23.344;2022-07-21T02:23:43;4.83;;;1.80;;
12218;SDS011;6172;42.646;23.344;2022-07-21T02:26:10;3.83;;;2.35;;
12218;SDS011;6172;42.646;23.344;2022-07-21T02:28:38;2.45;;;1.88;;
12218;SDS011;6172;42.646;23.344;2022-07-21T02:31:05;3.08;;;2.10;;
12218;SDS011;6172;42.646;23.344;2022-07-21T02:33:33;6.28;;;2.47;;
12218;SDS011;6172;42.646;23.344;2022-07-21T02:36:00;7.10;;;2.25;;
12218;SDS011;6172;42.646;23.344;2022-07-21T02:38:27;11.97;;;3.13;;
12218;SDS011;6172;42.646;23.344;2022-07-21T02:40:54;5.30;;;2.55;;
12218;SDS011;6172;42.646;23.344;2022-07-21T02:43:21;4.78;;;2.00;;
12218;SDS011;6172;42.646;23.344;2022-07-21T02:45:49;7.57;;;2.33;;
12218;SDS011;6172;42.646;23.344;2022-07-21T02:48:16;8.27;;;2.45;;
12218;SDS011;6172;42.646;23.344;2022-07-21T02:50:43;4.10;;;2.17;;
12218;SDS011;6172;42.646;23.344;2022-07-21T02:53:11;2.95;;;2.25;;
12218;SDS011;6172;42.646;23.344;2022-07-21T02:55:39;4.27;;;2.37;;
12218;SDS011;6172;42.646;23.344;2022-07-21T02:58:07;2.60;;;2.23;;
12218;SDS011;6172;42.646;23.344;2022-07-21T03:00:37;7.40;;;2.15;;
12218;SDS011;6172;42.646;23.344;2022-07-21T03:03:07;6.18;;;2.80;;
12218;SDS011;6172;42.646;23.344;2022-07-21T03:05:35;4.40;;;2.30;;
12218;SDS011;6172;42.646;23.344;2022-07-21T03:08:02;6.07;;;2.80;;
12218;SDS011;6172;42.646;23.344;2022-07-21T03:10:30;4.73;;;2.70;;
12218;SDS011;6172;42.646;23.344;2022-07-21T03:12:57;7.20;;;2.40;;
12218;SDS011;6172;42.646;23.344;2022-07-21T03:15:24;12.37;;;3.20;;
12218;SDS011;6172;42.646;23.344;2022-07-21T03:17:52;7.47;;;2.60;;
12218;SDS011;6172;42.646;23.344;2022-07-21T03:20:21;8.37;;;2.77;;
12218;SDS011;6172;42.646;23.344;2022-07-21T03:22:48;4.23;;;2.20;;
12218;SDS011;6172;42.646;23.344;2022-07-21T03:25:15;4.40;;;2.57;;
12218;SDS011;6172;42.646;23.344;2022-07-21T03:27:43;6.40;;;2.50;;
12218;SDS011;6172;42.646;23.344;2022-07-21T03:30:10;4.83;;;2.40;;
12218;SDS011;6172;42.646;23.344;2022-07-21T03:32:38;7.43;;;2.53;;
12218;SDS011;6172;42.646;23.344;2022-07-21T03:35:06;2.90;;;2.33;;
12218;SDS011;6172;42.646;23.344;2022-07-21T03:37:39;7.07;;;2.90;;
12218;SDS011;6172;42.646;23.344;2022-07-21T03:40:07;3.08;;;2.40;;
12218;SDS011;6172;42.646;23.344;2022-07-21T03:42:36;3.67;;;2.20;;
12218;SDS011;6172;42.646;23.344;2022-07-21T03:45:03;4.00;;;2.60;;
12218;SDS011;6172;42.646;23.344;2022-07-21T03:47:30;5.20;;;2.43;;
12218;SDS011;6172;42.646;23.344;2022-07-21T03:49:57;4.20;;;2.30;;
12218;SDS011;6172;42.646;23.344;2022-07-21T03:52:24;3.33;;;2.10;;
12218;SDS011;6172;42.646;23.344;2022-07-21T03:54:53;4.77;;;2.43;;
12218;SDS011;6172;42.646;23.344;2022-07-21T03:57:34;8.27;;;2.40;;
12218;SDS011;6172;42.646;23.344;2022-07-21T04:00:06;3.57;;;2.40;;
12218;SDS011;6172;42.646;23.344;2022-07-21T04:02:36;2.93;;;2.63;;
12218;SDS011;6172;42.646;23.344;2022-07-21T04:05:03;3.07;;;2.50;;
12218;SDS011;6172;42.646;23.344;2022-07-21T04:07:31;3.67;;;2.70;;
12218;SDS011;6172;42.646;23.344;2022-07-21T04:09:59;3.43;;;2.83;;
12218;SDS011;6172;42.646;23.344;2022-07-21T04:12:26;4.07;;;2.60;;
12218;SDS011;6172;42.646;23.344;2022-07-21T04:14:53;6.77;;;2.80;;
12218;SDS011;6172;42.646;23.344;2022-07-21T04:17:20;2.72;;;2.55;;
12218;SDS011;6172;42.646;23.344;2022-07-21T04:19:47;6.00;;;2.53;;
12218;SDS011;6172;42.646;23.344;2022-07-21T04:22:15;4.53;;;2.92;;
12218;SDS011;6172;42.646;23.344;2022-07-21T04:24:42;3.65;;;2.70;;
12218;SDS011;6172;42.646;23.344;2022-07-21T04:27:11;4.50;;;2.70;;
12218;SDS011;6172;42.646;23.344;2022-07-21T04:29:38;4.90;;;2.85;;
12218;SDS011;6172;42.646;23.344;2022-07-21T04:32:08;8.95;;;3.00;;
12218;SDS011;6172;42.646;23.344;2022-07-21T04:34:35;4.23;;;3.03;;
12218;SDS011;6172;42.646;23.344;2022-07-21T04:37:02;4.07;;;3.20;;
12218;SDS011;6172;42.646;23.344;2022-07-21T04:39:28;5.72;;;3.33;;
12218;SDS011;6172;42.646;23.344;2022-07-21T04:41:55;9.23;;;3.80;;
12218;SDS011;6172;42.646;23.344;2022-07-21T04:44:26;4.82;;;3.45;;
12218;SDS011;6172;42.646;23.344;2022-07-21T04:46:53;4.03;;;3.55;;
12218;SDS011;6172;42.646;23.344;2022-07-21T04:49:22;10.80;;;3.95;;
12218;SDS011;6172;42.646;23.344;2022-07-21T04:51:49;5.35;;;3.45;;
12218;SDS011;6172;42.646;23.344;2022-07-21T04:54:16;4.90;;;3.65;;
12218;SDS011;6172;42.646;23.344;2022-07-21T04:56:43;7.38;;;3.97;;
12218;SDS011;6172;42.646;23.344;2022-07-21T04:59:11;5.30;;;3.97;;
12218;SDS011;6172;42.646;23.344;2022-07-21T05:01:40;5.38;;;3.72;;
12218;SDS011;6172;42.646;23.344;2022-07-21T05:04:07;5.88;;;3.75;;
12218;SDS011;6172;42.646;23.344;2022-07-21T05:06:34;5.35;;;3.97;;
12218;SDS011;6172;42.646;23.344;2022-07-21T05:09:01;5.75;;;3.55;;
12218;SDS011;6172;42.646;23.344;2022-07-21T05:11:29;6.57;;;3.65;;
12218;SDS011;6172;42.646;23.344;2022-07-21T05:13:56;5.13;;;3.88;;
12218;SDS011;6172;42.646;23.344;2022-07-21T05:16:23;8.10;;;4.15;;
12218;SDS011;6172;42.646;23.344;2022-07-21T05:18:51;6.15;;;3.92;;
12218;SDS011;6172;42.646;23.344;2022-07-21T05:21:18;6.22;;;3.72;;
12218;SDS011;6172;42.646;23.344;2022-07-21T05:23:45;5.50;;;3.90;;
12218;SDS011;6172;42.646;23.344;2022-07-21T05:26:12;5.90;;;4.32;;
12218;SDS011;6172;42.646;23.344;2022-07-21T05:28:39;7.07;;;4.25;;
12218;SDS011;6172;42.646;23.344;2022-07-21T05:31:07;7.07;;;4.13;;
12218;SDS011;6172;42.646;23.344;2022-07-21T05:33:34;9.50;;;4.47;;
12218;SDS011;6172;42.646;23.344;2022-07-21T05:36:04;7.20;;;3.67;;
12218;SDS011;6172;42.646;23.344;2022-07-21T05:38:31;7.97;;;4.22;;
12218;SDS011;6172;42.646;23.344;2022-07-21T05:40:58;3.95;;;3.40;;
12218;SDS011;6172;42.646;23.344;2022-07-21T05:43:28;8.27;;;4.07;;
12218;SDS011;6172;42.646;23.344;2022-07-21T05:45:55;4.72;;;3.85;;
12218;SDS011;6172;42.646;23.344;2022-07-21T05:48:22;5.40;;;3.70;;
12218;SDS011;6172;42.646;23.344;2022-07-21T05:50:49;6.50;;;3.92;;
12218;SDS011;6172;42.646;23.344;2022-07-21T05:53:18;5.63;;;3.88;;
12218;SDS011;6172;42.646;23.344;2022-07-21T05:55:45;4.18;;;3.42;;
12218;SDS011;6172;42.646;23.344;2022-07-21T05:58:12;6.00;;;3.75;;
12218;SDS011;6172;42.646;23.344;2022-07-21T06:00:39;7.72;;;3.67;;
12218;SDS011;6172;42.646;23.344;2022-07-21T06:03:06;6.72;;;3.28;;
12218;SDS011;6172;42.646;23.344;2022-07-21T06:05:33;7.63;;;3.53;;
12218;SDS011;6172;42.646;23.344;2022-07-21T06:07:59;6.03;;;3.78;;
12218;SDS011;6172;42.646;23.344;2022-07-21T06:10:28;9.35;;;3.58;;
12218;SDS011;6172;42.646;23.344;2022-07-21T06:12:56;6.43;;;4.25;;
12218;SDS011;6172;42.646;23.344;2022-07-21T06:15:22;7.75;;;3.83;;
12218;SDS011;6172;42.646;23.344;2022-07-21T06:17:49;5.65;;;3.28;;
12218;SDS011;6172;42.646;23.344;2022-07-21T06:20:16;5.10;;;3.03;;
12218;SDS011;6172;42.646;23.344;2022-07-21T06:22:43;6.90;;;2.85;;
12218;SDS011;6172;42.646;23.344;2022-07-21T06:25:10;6.22;;;2.50;;
12218;SDS011;6172;42.646;23.344;2022-07-21T06:27:38;3.35;;;2.58;;
12218;SDS011;6172;42.646;23.344;2022-07-21T06:30:05;3.22;;;2.28;;
12218;SDS011;6172;42.646;23.344;2022-07-21T06:32:33;12.23;;;3.22;;
12218;SDS011;6172;42.646;23.344;2022-07-21T06:35:00;6.15;;;3.15;;
12218;SDS011;6172;42.646;23.344;2022-07-21T06:37:26;6.65;;;3.00;;
12218;SDS011;6172;42.646;23.344;2022-07-21T06:39:53;9.10;;;3.00;;
12218;SDS011;6172;42.646;23.344;2022-07-21T06:42:20;5.40;;;2.65;;
12218;SDS011;6172;42.646;23.344;2022-07-21T06:44:49;4.05;;;2.38;;
12218;SDS011;6172;42.646;23.344;2022-07-21T06:47:15;11.75;;;3.22;;
12218;SDS011;6172;42.646;23.344;2022-07-21T06:49:42;9.45;;;3.22;;
12218;SDS011;6172;42.646;23.344;2022-07-21T06:52:09;2.85;;;2.60;;
12218;SDS011;6172;42.646;23.344;2022-07-21T06:54:36;4.00;;;3.10;;
12218;SDS011;6172;42.646;23.344;2022-07-21T06:57:03;2.92;;;2.72;;
12218;SDS011;6172;42.646;23.344;2022-07-21T06:59:31;8.77;;;2.40;;
12218;SDS011;6172;42.646;23.344;2022-07-21T07:01:59;9.48;;;3.15;;
12218;SDS011;6172;42.646;23.344;2022-07-21T07:04:26;3.78;;;2.60;;
12218;SDS011;6172;42.646;23.344;2022-07-21T07:06:53;4.60;;;2.90;;
12218;SDS011;6172;42.646;23.344;2022-07-21T07:09:20;6.30;;;2.72;;
12218;SDS011;6172;42.646;23.344;2022-07-21T07:11:47;12.15;;;3.55;;
12218;SDS011;6172;42.646;23.344;2022-07-21T07:14:17;9.23;;;2.80;;
12218;SDS011;6172;42.646;23.344;2022-07-21T07:16:43;3.65;;;2.60;;
12218;SDS011;6172;42.646;23.344;2022-07-21T07:19:12;7.30;;;2.95;;
12218;SDS011;6172;42.646;23.344;2022-07-21T07:21:39;5.60;;;2.83;;
12218;SDS011;6172;42.646;23.344;2022-07-21T07:24:06;4.03;;;2.40;;
12218;SDS011;6172;42.646;23.344;2022-07-21T07:26:33;6.45;;;2.53;;
12218;SDS011;6172;42.646;23.344;2022-07-21T07:29:00;4.97;;;2.60;;
12218;SDS011;6172;42.646;23.344;2022-07-21T07:31:27;4.47;;;2.97;;
12218;SDS011;6172;42.646;23.344;2022-07-21T07:33:54;4.00;;;2.75;;
12218;SDS011;6172;42.646;23.344;2022-07-21T07:36:24;5.53;;;2.67;;
12218;SDS011;6172;42.646;23.344;2022-07-21T07:38:51;4.32;;;2.58;;
12218;SDS011;6172;42.646;23.344;2022-07-21T07:41:18;5.13;;;2.00;;
12218;SDS011;6172;42.646;23.344;2022-07-21T07:43:46;9.73;;;2.75;;
12218;SDS011;6172;42.646;23.344;2022-07-21T07:46:13;5.53;;;2.25;;
12218;SDS011;6172;42.646;23.344;2022-07-21T07:48:40;6.57;;;2.28;;
12218;SDS011;6172;42.646;23.344;2022-07-21T07:51:08;8.82;;;2.15;;
12218;SDS011;6172;42.646;23.344;2022-07-21T07:53:37;8.10;;;2.95;;
12218;SDS011;6172;42.646;23.344;2022-07-21T07:56:05;6.80;;;2.20;;
12218;SDS011;6172;42.646;23.344;2022-07-21T07:58:33;8.57;;;2.60;;
12218;SDS011;6172;42.646;23.344;2022-07-21T08:01:00;6.82;;;2.50;;
12218;SDS011;6172;42.646;23.344;2022-07-21T08:03:27;13.70;;;3.92;;
12218;SDS011;6172;42.646;23.344;2022-07-21T08:05:55;5.35;;;2.40;;
12218;SDS011;6172;42.646;23.344;2022-07-21T08:08:28;5.88;;;2.17;;
12218;SDS011;6172;42.646;23.344;2022-07-21T08:10:56;7.60;;;2.28;;
12218;SDS011;6172;42.646;23.344;2022-07-21T08:13:23;5.90;;;1.85;;
12218;SDS011;6172;42.646;23.344;2022-07-21T08:15:50;3.05;;;1.70;;
12218;SDS011;6172;42.646;23.344;2022-07-21T08:18:18;3.22;;;2.03;;
12218;SDS011;6172;42.646;23.344;2022-07-21T08:20:46;4.88;;;2.10;;
12218;SDS011;6172;42.646;23.344;2022-07-21T08:23:17;4.68;;;1.92;;
12218;SDS011;6172;42.646;23.344;2022-07-21T08:25:43;7.72;;;2.38;;
12218;SDS011;6172;42.646;23.344;2022-07-21T08:28:12;7.10;;;2.08;;
12218;SDS011;6172;42.646;23.344;2022-07-21T08:30:39;13.88;;;2.17;;
12218;SDS011;6172;42.646;23.344;2022-07-21T08:33:06;4.13;;;1.83;;
12218;SDS011;6172;42.646;23.344;2022-07-21T08:35:33;7.68;;;2.78;;
12218;SDS011;6172;42.646;23.344;2022-07-21T08:38:00;4.22;;;1.95;;
12218;SDS011;6172;42.646;23.344;2022-07-21T08:40:29;7.13;;;2.40;;
12218;SDS011;6172;42.646;23.344;2022-07-21T08:42:59;2.60;;;1.30;;
12218;SDS011;6172;42.646;23.344;2022-07-21T08:45:28;2.33;;;1.52;;
12218;SDS011;6172;42.646;23.344;2022-07-21T08:47:56;4.05;;;1.27;;
12218;SDS011;6172;42.646;23.344;2022-07-21T08:50:24;7.80;;;2.13;;
12218;SDS011;6172;42.646;23.344;2022-07-21T08:52:53;2.17;;;1.90;;
12218;SDS011;6172;42.646;23.344;2022-07-21T08:55:20;3.17;;;1.92;;
12218;SDS011;6172;42.646;23.344;2022-07-21T08:57:47;4.00;;;2.10;;
12218;SDS011;6172;42.646;23.344;2022-07-21T09:00:14;3.15;;;1.92;;
12218;SDS011;6172;42.646;23.344;2022-07-21T09:02:42;6.18;;;2.13;;
12218;SDS011;6172;42.646;23.344;2022-07-21T09:05:09;1.75;;;1.38;;
12218;SDS011;6172;42.646;23.344;2022-07-21T09:07:46;3.08;;;1.50;;
12218;SDS011;6172;42.646;23.344;2022-07-21T09:10:15;3.30;;;2.00;;
12218;SDS011;6172;42.646;23.344;2022-07-21T09:12:48;2.33;;;1.83;;
12218;SDS011;6172;42.646;23.344;2022-07-21T09:15:17;6.43;;;2.45;;
12218;SDS011;6172;42.646;23.344;2022-07-21T09:17:46;4.40;;;2.40;;
12218;SDS011;6172;42.646;23.344;2022-07-21T09:20:30;10.27;;;2.20;;
12218;SDS011;6172;42.646;23.344;2022-07-21T09:23:04;6.50;;;2.40;;
12218;SDS011;6172;42.646;23.344;2022-07-21T09:25:33;2.92;;;2.08;;
12218;SDS011;6172;42.646;23.344;2022-07-21T09:28:09;3.50;;;1.75;;
12218;SDS011;6172;42.646;23.344;2022-07-21T09:30:47;3.28;;;1.92;;
12218;SDS011;6172;42.646;23.344;2022-07-21T09:33:24;4.10;;;2.38;;
12218;SDS011;6172;42.646;23.344;2022-07-21T09:35:58;2.10;;;1.90;;
12218;SDS011;6172;42.646;23.344;2022-07-21T09:38:27;5.57;;;2.15;;
12218;SDS011;6172;42.646;23.344;2022-07-21T09:40:55;3.15;;;1.88;;
12218;SDS011;6172;42.646;23.344;2022-07-21T09:43:34;4.57;;;2.05;;
12218;SDS011;6172;42.646;23.344;2022-07-21T09:46:08;3.65;;;1.70;;
12218;SDS011;6172;42.646;23.344;2022-07-21T09:48:41;2.10;;;1.90;;
12218;SDS011;6172;42.646;23.344;2022-07-21T09:51:22;1.85;;;1.67;;
12218;SDS011;6172;42.646;23.344;2022-07-21T09:53:52;3.55;;;1.90;;
12218;SDS011;6172;42.646;23.344;2022-07-21T09:56:21;3.63;;;1.70;;
12218;SDS011;6172;42.646;23.344;2022-07-21T09:58:50;4.53;;;1.85;;
12218;SDS011;6172;42.646;23.344;2022-07-21T10:01:18;2.33;;;2.13;;
12218;SDS011;6172;42.646;23.344;2022-07-21T10:03:48;9.85;;;2.75;;
12218;SDS011;6172;42.646;23.344;2022-07-21T10:06:17;3.63;;;2.15;;
12218;SDS011;6172;42.646;23.344;2022-07-21T10:08:46;3.20;;;1.65;;
12218;SDS011;6172;42.646;23.344;2022-07-21T10:11:13;2.88;;;2.00;;
12218;SDS011;6172;42.646;23.344;2022-07-21T10:13:40;9.45;;;2.22;;
12218;SDS011;6172;42.646;23.344;2022-07-21T10:16:08;5.40;;;2.15;;
12218;SDS011;6172;42.646;23.344;2022-07-21T10:18:37;1.50;;;1.40;;
12218;SDS011;6172;42.646;23.344;2022-07-21T10:21:16;2.45;;;1.73;;
12218;SDS011;6172;42.646;23.344;2022-07-21T10:23:53;2.67;;;1.58;;
12218;SDS011;6172;42.646;23.344;2022-07-21T10:26:21;1.92;;;1.30;;
12218;SDS011;6172;42.646;23.344;2022-07-21T10:28:48;1.60;;;1.50;;
12218;SDS011;6172;42.646;23.344;2022-07-21T10:31:16;2.28;;;1.60;;
12218;SDS011;6172;42.646;23.344;2022-07-21T10:33:51;5.15;;;1.60;;
12218;SDS011;6172;42.646;23.344;2022-07-21T10:39:19;5.30;;;1.80;;
12218;SDS011;6172;42.646;23.344;2022-07-21T10:41:50;2.28;;;1.83;;
12218;SDS011;6172;42.646;23.344;2022-07-21T10:47:05;2.75;;;1.70;;
12218;SDS011;6172;42.646;23.344;2022-07-21T10:49:47;6.78;;;2.03;;
12218;SDS011;6172;42.646;23.344;2022-07-21T10:55:34;2.13;;;1.58;;
12218;SDS011;6172;42.646;23.344;2022-07-21T10:58:09;1.92;;;1.60;;
12218;SDS011;6172;42.646;23.344;2022-07-21T11:00:39;3.15;;;1.60;;
12218;SDS011;6172;42.646;23.344;2022-07-21T11:03:14;3.42;;;1.75;;
12218;SDS011;6172;42.646;23.344;2022-07-21T11:08:44;2.28;;;1.70;;
12218;SDS011;6172;42.646;23.344;2022-07-21T11:11:14;3.05;;;1.70;;
12218;SDS011;6172;42.646;23.344;2022-07-21T11:13:58;4.30;;;1.70;;
12218;SDS011;6172;42.646;23.344;2022-07-21T11:19:37;4.78;;;1.80;;
12218;SDS011;6172;42.646;23.344;2022-07-21T11:22:08;2.03;;;1.92;;
12218;SDS011;6172;42.646;23.344;2022-07-21T11:24:37;1.88;;;1.48;;
12218;SDS011;6172;42.646;23.344;2022-07-21T11:27:07;3.42;;;1.70;;
12218;SDS011;6172;42.646;23.344;2022-07-21T11:29:35;1.77;;;1.67;;
12218;SDS011;6172;42.646;23.344;2022-07-21T11:32:05;2.78;;;1.55;;
12218;SDS011;6172;42.646;23.344;2022-07-21T11:34:36;1.90;;;1.70;;
12218;SDS011;6172;42.646;23.344;2022-07-21T11:37:08;2.28;;;1.70;;
12218;SDS011;6172;42.646;23.344;2022-07-21T11:39:36;1.92;;;1.83;;
12218;SDS011;6172;42.646;23.344;2022-07-21T11:42:06;2.50;;;1.88;;
12218;SDS011;6172;42.646;23.344;2022-07-21T11:44:34;1.98;;;1.77;;
12218;SDS011;6172;42.646;23.344;2022-07-21T11:47:02;1.42;;;1.33;;
12218;SDS011;6172;42.646;23.344;2022-07-21T11:49:31;6.00;;;2.00;;
12218;SDS011;6172;42.646;23.344;2022-07-21T11:51:59;3.47;;;2.10;;
12218;SDS011;6172;42.646;23.344;2022-07-21T11:54:30;2.13;;;1.70;;
12218;SDS011;6172;42.646;23.344;2022-07-21T11:57:01;6.35;;;2.03;;
12218;SDS011;6172;42.646;23.344;2022-07-21T11:59:32;5.30;;;2.08;;
12218;SDS011;6172;42.646;23.344;2022-07-21T12:02:02;2.88;;;2.00;;
12218;SDS011;6172;42.646;23.344;2022-07-21T12:04:32;2.08;;;1.60;;
12218;SDS011;6172;42.646;23.344;2022-07-21T12:07:04;2.60;;;2.35;;
12218;SDS011;6172;42.646;23.344;2022-07-21T12:09:32;15.63;;;2.78;;
12218;SDS011;6172;42.646;23.344;2022-07-21T12:12:00;4.97;;;1.90;;
12218;SDS011;6172;42.646;23.344;2022-07-21T12:14:45;4.22;;;2.10;;
12218;SDS011;6172;42.646;23.344;2022-07-21T12:17:14;4.22;;;2.08;;
12218;SDS011;6172;42.646;23.344;2022-07-21T12:19:43;3.17;;;2.03;;
12218;SDS011;6172;42.646;23.344;2022-07-21T12:22:11;1.75;;;1.65;;
12218;SDS011;6172;42.646;23.344;2022-07-21T12:24:50;11.68;;;2.65;;
12218;SDS011;6172;42.646;23.344;2022-07-21T12:27:19;9.88;;;2.40;;
12218;SDS011;6172;42.646;23.344;2022-07-21T12:29:48;6.18;;;2.10;;
12218;SDS011;6172;42.646;23.344;2022-07-21T12:35:18;2.80;;;1.88;;
12218;SDS011;6172;42.646;23.344;2022-07-21T12:37:57;5.57;;;2.22;;
12218;SDS011;6172;42.646;23.344;2022-07-21T12:40:30;2.42;;;2.20;;
12218;SDS011;6172;42.646;23.344;2022-07-21T12:43:07;4.57;;;2.13;;
12218;SDS011;6172;42.646;23.344;2022-07-21T12:45:51;2.75;;;2.22;;
12218;SDS011;6172;42.646;23.344;2022-07-21T12:48:23;10.18;;;2.83;;
12218;SDS011;6172;42.646;23.344;2022-07-21T12:51:05;5.25;;;2.50;;
12218;SDS011;6172;42.646;23.344;2022-07-21T12:53:37;7.75;;;2.22;;
12218;SDS011;6172;42.646;23.344;2022-07-21T12:56:07;2.75;;;2.35;;
12218;SDS011;6172;42.646;23.344;2022-07-21T12:58:36;2.25;;;2.00;;
12218;SDS011;6172;42.646;23.344;2022-07-21T13:01:05;3.17;;;1.75;;
12218;SDS011;6172;42.646;23.344;2022-07-21T13:03:32;4.57;;;1.92;;
12218;SDS011;6172;42.646;23.344;2022-07-21T13:06:01;1.92;;;1.67;;
12218;SDS011;6172;42.646;23.344;2022-07-21T13:08:30;5.93;;;2.08;;
12218;SDS011;6172;42.646;23.344;2022-07-21T13:10:58;2.47;;;2.08;;
12218;SDS011;6172;42.646;23.344;2022-07-21T13:13:25;5.63;;;2.25;;
12218;SDS011;6172;42.646;23.344;2022-07-21T13:15:53;5.78;;;2.35;;
12218;SDS011;6172;42.646;23.344;2022-07-21T13:18:22;4.38;;;2.30;;
12218;SDS011;6172;42.646;23.344;2022-07-21T13:20:50;3.45;;;2.03;;
12218;SDS011;6172;42.646;23.344;2022-07-21T13:23:17;4.30;;;2.20;;
12218;SDS011;6172;42.646;23.344;2022-07-21T13:25:45;6.90;;;2.38;;
12218;SDS011;6172;42.646;23.344;2022-07-21T13:28:15;7.63;;;2.40;;
12218;SDS011;6172;42.646;23.344;2022-07-21T13:30:42;5.32;;;2.58;;
12218;SDS011;6172;42.646;23.344;2022-07-21T13:33:10;5.13;;;2.15;;
12218;SDS011;6172;42.646;23.344;2022-07-21T13:35:39;2.80;;;2.20;;
12218;SDS011;6172;42.646;23.344;2022-07-21T13:38:06;3.55;;;2.20;;
12218;SDS011;6172;42.646;23.344;2022-07-21T13:40:35;5.47;;;2.88;;
12218;SDS011;6172;42.646;23.344;2022-07-21T13:43:02;4.95;;;2.65;;
12218;SDS011;6172;42.646;23.344;2022-07-21T13:45:29;3.05;;;2.75;;
12218;SDS011;6172;42.646;23.344;2022-07-21T13:47:56;5.22;;;2.78;;
12218;SDS011;6172;42.646;23.344;2022-07-21T13:50:23;2.92;;;2.65;;
12218;SDS011;6172;42.646;23.344;2022-07-21T13:52:52;3.97;;;2.70;;
12218;SDS011;6172;42.646;23.344;2022-07-21T13:55:18;3.25;;;2.20;;
12218;SDS011;6172;42.646;23.344;2022-07-21T13:57:45;5.28;;;2.13;;
12218;SDS011;6172;42.646;23.344;2022-07-21T14:00:14;2.38;;;1.95;;
12218;SDS011;6172;42.646;23.344;2022-07-21T14:02:44;4.57;;;2.13;;
12218;SDS011;6172;42.646;23.344;2022-07-21T14:05:11;4.43;;;2.15;;
12218;SDS011;6172;42.646;23.344;2022-07-21T14:07:39;5.60;;;2.20;;
12218;SDS011;6172;42.646;23.344;2022-07-21T14:10:07;4.88;;;2.30;;
12218;SDS011;6172;42.646;23.344;2022-07-21T14:12:35;4.50;;;2.22;;
12218;SDS011;6172;42.646;23.344;2022-07-21T14:15:03;2.55;;;2.03;;
12218;SDS011;6172;42.646;23.344;2022-07-21T14:17:31;2.72;;;1.75;;
12218;SDS011;6172;42.646;23.344;2022-07-21T14:19:58;2.47;;;2.03;;
12218;SDS011;6172;42.646;23.344;2022-07-21T14:22:25;2.65;;;1.92;;
12218;SDS011;6172;42.646;23.344;2022-07-21T14:24:52;4.28;;;2.03;;
12218;SDS011;6172;42.646;23.344;2022-07-21T14:27:38;2.90;;;1.90;;
12218;SDS011;6172;42.646;23.344;2022-07-21T14:30:05;2.05;;;1.67;;
12218;SDS011;6172;42.646;23.344;2022-07-21T14:32:33;3.15;;;2.10;;
12218;SDS011;6172;42.646;23.344;2022-07-21T14:35:00;7.03;;;2.25;;
12218;SDS011;6172;42.646;23.344;2022-07-21T14:37:28;2.55;;;2.35;;
12218;SDS011;6172;42.646;23.344;2022-07-21T14:39:55;2.10;;;1.77;;
12218;SDS011;6172;42.646;23.344;2022-07-21T14:42:22;7.35;;;2.08;;
12218;SDS011;6172;42.646;23.344;2022-07-21T14:44:51;3.40;;;2.15;;
12218;SDS011;6172;42.646;23.344;2022-07-21T14:47:18;4.47;;;1.63;;
12218;SDS011;6172;42.646;23.344;2022-07-21T14:49:45;3.42;;;1.90;;
12218;SDS011;6172;42.646;23.344;2022-07-21T14:52:12;6.53;;;3.63;;
12218;SDS011;6172;42.646;23.344;2022-07-21T14:54:39;5.78;;;3.42;;
12218;SDS011;6172;42.646;23.344;2022-07-21T14:57:06;2.55;;;1.80;;
12218;SDS011;6172;42.646;23.344;2022-07-21T14:59:33;17.13;;;2.50;;
12218;SDS011;6172;42.646;23.344;2022-07-21T15:02:01;1.83;;;1.70;;
12218;SDS011;6172;42.646;23.344;2022-07-21T15:04:28;1.70;;;1.60;;
12218;SDS011;6172;42.646;23.344;2022-07-21T15:06:55;3.58;;;1.83;;
12218;SDS011;6172;42.646;23.344;2022-07-21T15:09:22;2.22;;;2.00;;
12218;SDS011;6172;42.646;23.344;2022-07-21T15:11:49;2.03;;;1.85;;
12218;SDS011;6172;42.646;23.344;2022-07-21T15:14:16;1.95;;;1.80;;